Time;durP1;ratioP1;P1;durP2;ratioP2;P2;SDS_P1;SDS_P2;PMS_P1;PMS_P2;Temp;Humidity;BMP_temperature;BMP_pressure;BME280_temperature;BME280_humidity;BME280_pressure;Samples;Min_cycle;Max_cycle;Signal;HPM_P1;HPM_P2
2023/12/13 00:00:23;;;;;;;3.42;1.30;;;8.90;99.90;;;;;;4999805;28;20482;-80
2023/12/13 00:02:49;;;;;;;1.80;0.80;;;8.90;99.90;;;;;;4991414;28;20790;-80
2023/12/13 00:05:14;;;;;;;2.05;1.13;;;8.80;99.90;;;;;;4977304;28;20549;-80
2023/12/13 00:07:40;;;;;;;3.97;1.05;;;8.80;99.90;;;;;;4981474;28;20494;-79
2023/12/13 00:10:06;;;;;;;5.90;1.40;;;8.80;99.90;;;;;;4979781;28;20026;-80
2023/12/13 00:12:32;;;;;;;2.17;0.98;;;8.80;99.90;;;;;;4998700;28;20561;-80
2023/12/13 00:14:57;;;;;;;2.25;1.08;;;8.80;99.90;;;;;;4989487;28;20029;-80
2023/12/13 00:17:23;;;;;;;3.20;1.33;;;8.70;99.90;;;;;;4999567;28;20406;-80
2023/12/13 00:19:48;;;;;;;3.95;1.00;;;8.70;99.90;;;;;;4998827;28;20026;-80
2023/12/13 00:22:14;;;;;;;4.28;1.55;;;8.70;99.90;;;;;;4995044;28;20041;-80
2023/12/13 00:24:39;;;;;;;2.60;1.00;;;8.60;99.90;;;;;;4965006;28;20038;-80
2023/12/13 00:27:05;;;;;;;0.73;0.60;;;8.70;99.90;;;;;;4993761;28;20030;-80
2023/12/13 00:29:30;;;;;;;2.15;1.27;;;8.60;99.90;;;;;;4993338;28;20077;-80
2023/12/13 00:31:56;;;;;;;0.88;0.60;;;8.60;99.90;;;;;;4980363;28;20033;-80
2023/12/13 00:34:21;;;;;;;3.50;0.60;;;8.50;99.90;;;;;;4988070;28;20426;-80
2023/12/13 00:36:47;;;;;;;0.45;0.40;;;8.60;99.90;;;;;;4974479;28;20778;-80
2023/12/13 00:39:12;;;;;;;3.20;0.68;;;8.60;99.90;;;;;;4997751;28;20505;-80
2023/12/13 00:41:38;;;;;;;4.70;1.00;;;8.70;99.90;;;;;;4985662;28;20037;-80
2023/12/13 00:44:04;;;;;;;4.47;1.75;;;8.60;99.90;;;;;;4986241;28;20030;-80
2023/12/13 00:46:29;;;;;;;2.47;0.95;;;8.50;99.90;;;;;;5013961;28;20038;-80
2023/12/13 00:48:55;;;;;;;2.50;0.68;;;8.60;99.90;;;;;;4998521;28;20041;-80
2023/12/13 00:51:21;;;;;;;1.40;0.47;;;8.50;99.90;;;;;;4993802;28;20042;-80
2023/12/13 00:53:47;;;;;;;1.35;0.60;;;8.40;99.90;;;;;;4980450;28;20035;-80
2023/12/13 00:56:13;;;;;;;3.60;0.90;;;8.40;99.90;;;;;;4955887;28;20403;-80
2023/12/13 00:58:38;;;;;;;0.95;0.80;;;8.40;99.90;;;;;;4968062;28;20038;-80
2023/12/13 01:01:05;;;;;;;3.95;1.02;;;8.40;99.90;;;;;;4995127;28;20117;-80
2023/12/13 01:03:30;;;;;;;2.50;0.98;;;8.40;99.90;;;;;;4982812;28;20608;-80
2023/12/13 01:05:56;;;;;;;1.40;0.77;;;8.30;99.90;;;;;;4987380;28;20088;-80
2023/12/13 01:08:21;;;;;;;2.78;0.70;;;8.20;99.90;;;;;;4997332;28;20042;-80
2023/12/13 01:10:47;;;;;;;3.88;0.73;;;8.30;99.90;;;;;;4998006;28;20038;-81
2023/12/13 01:13:13;;;;;;;4.22;0.90;;;8.20;99.90;;;;;;4983718;28;20665;-80
2023/12/13 01:15:38;;;;;;;2.83;0.63;;;8.20;99.90;;;;;;4984755;28;20038;-81
2023/12/13 01:18:04;;;;;;;2.30;0.73;;;8.20;99.90;;;;;;4999308;28;20045;-80
2023/12/13 01:20:29;;;;;;;1.70;0.73;;;8.20;99.90;;;;;;4995373;28;20067;-80
2023/12/13 01:22:55;;;;;;;2.20;0.60;;;8.10;99.90;;;;;;4984267;28;20668;-80
2023/12/13 01:25:21;;;;;;;1.58;0.70;;;8.10;99.90;;;;;;4983068;28;20068;-81
2023/12/13 01:27:46;;;;;;;3.97;0.77;;;8.10;99.90;;;;;;4979250;28;20030;-80
2023/12/13 01:30:12;;;;;;;2.13;0.90;;;8.10;99.90;;;;;;4995506;28;20042;-80
2023/12/13 01:32:37;;;;;;;2.63;0.57;;;8.10;99.90;;;;;;4968672;28;20061;-80
2023/12/13 01:35:04;;;;;;;2.50;0.70;;;8.10;99.90;;;;;;4995274;28;20104;-80
2023/12/13 01:37:29;;;;;;;4.88;0.90;;;8.10;99.90;;;;;;4966395;28;20038;-81
2023/12/13 01:39:56;;;;;;;3.70;0.85;;;8.10;99.90;;;;;;4986595;28;20090;-81
2023/12/13 01:42:22;;;;;;;6.85;1.05;;;8.10;99.90;;;;;;4979718;28;20034;-81
2023/12/13 01:44:48;;;;;;;3.25;1.30;;;8.10;99.90;;;;;;4997661;28;20561;-80
2023/12/13 01:47:13;;;;;;;4.38;0.90;;;8.10;99.90;;;;;;5000573;28;20096;-81
2023/12/13 01:49:39;;;;;;;2.20;0.88;;;8.20;99.90;;;;;;4983292;28;20363;-81
2023/12/13 01:52:05;;;;;;;5.75;0.75;;;8.20;99.90;;;;;;4958293;28;20034;-81
2023/12/13 01:54:31;;;;;;;3.08;0.75;;;8.20;99.90;;;;;;4966420;28;20041;-80
2023/12/13 01:56:56;;;;;;;3.95;0.77;;;8.20;99.90;;;;;;4985112;28;20023;-80
2023/12/13 01:59:22;;;;;;;2.10;0.63;;;8.20;99.90;;;;;;4983335;28;20104;-80
2023/12/13 02:01:47;;;;;;;1.50;0.70;;;8.20;99.90;;;;;;4972732;28;20042;-80
2023/12/13 02:04:14;;;;;;;4.13;1.02;;;8.20;99.90;;;;;;4971638;28;20117;-80
2023/12/13 02:06:41;;;;;;;2.28;0.95;;;8.20;99.90;;;;;;4957939;28;20801;-79
2023/12/13 02:09:06;;;;;;;3.53;0.90;;;8.20;99.90;;;;;;4985449;28;20894;-80
2023/12/13 02:11:33;;;;;;;2.75;1.00;;;8.20;99.90;;;;;;4983202;28;20142;-80
2023/12/13 02:13:58;;;;;;;7.47;1.35;;;8.20;99.90;;;;;;4966914;28;20133;-80
2023/12/13 02:16:26;;;;;;;4.97;1.05;;;8.20;99.90;;;;;;4983991;28;20077;-80
2023/12/13 02:18:51;;;;;;;5.60;1.52;;;8.20;99.90;;;;;;4984496;28;20039;-80
2023/12/13 02:21:17;;;;;;;2.33;0.93;;;8.20;99.90;;;;;;4989604;28;20465;-80
2023/12/13 02:23:43;;;;;;;7.07;1.35;;;8.20;99.90;;;;;;4998116;28;20026;-81
2023/12/13 02:26:09;;;;;;;4.18;0.80;;;8.20;99.90;;;;;;4986567;28;20049;-80
2023/12/13 02:28:34;;;;;;;3.20;1.17;;;8.30;99.90;;;;;;4999776;28;20042;-81
2023/12/13 02:31:00;;;;;;;2.42;1.13;;;8.20;99.90;;;;;;4976973;28;20038;-80
2023/12/13 02:33:26;;;;;;;0.98;0.70;;;8.20;99.90;;;;;;4997795;28;20412;-80
2023/12/13 02:35:59;;;;;;;6.05;1.10;;;8.20;99.90;;;;;;5014038;28;20922;-79
2023/12/13 02:38:24;;;;;;;4.22;1.10;;;8.30;99.90;;;;;;5000443;28;20510;-80
2023/12/13 02:40:50;;;;;;;5.85;1.00;;;8.20;99.90;;;;;;4987715;28;20049;-80
2023/12/13 02:43:16;;;;;;;5.22;0.90;;;8.20;99.90;;;;;;5003809;28;20045;-80
2023/12/13 02:45:42;;;;;;;5.25;0.98;;;8.20;99.90;;;;;;4984655;28;20034;-80
2023/12/13 02:48:07;;;;;;;4.15;1.20;;;8.30;99.90;;;;;;4989259;28;20030;-80
2023/12/13 02:50:36;;;;;;;3.50;0.80;;;8.30;99.90;;;;;;4999101;28;20034;-80
2023/12/13 02:53:05;;;;;;;3.13;1.13;;;8.20;99.90;;;;;;4973757;28;20521;-80
2023/12/13 02:55:31;;;;;;;7.68;1.17;;;8.30;99.90;;;;;;5000888;28;20141;-80
2023/12/13 02:57:56;;;;;;;2.17;1.13;;;8.20;99.90;;;;;;4983487;28;20113;-80
2023/12/13 03:00:22;;;;;;;6.25;1.52;;;8.30;99.90;;;;;;4996981;28;20423;-80
2023/12/13 03:02:47;;;;;;;5.60;1.48;;;8.20;99.90;;;;;;4979252;28;20031;-80
2023/12/13 03:05:13;;;;;;;6.50;1.45;;;8.20;99.90;;;;;;4997197;28;20052;-80
2023/12/13 03:07:41;;;;;;;6.03;1.25;;;8.20;99.90;;;;;;5007979;28;20038;-80
2023/12/13 03:10:07;;;;;;;5.97;1.58;;;8.20;99.90;;;;;;4964204;28;20478;-80
2023/12/13 03:12:33;;;;;;;3.83;0.90;;;8.20;99.90;;;;;;4995735;28;20039;-80
2023/12/13 03:14:58;;;;;;;8.63;1.48;;;8.20;99.90;;;;;;4996235;28;20038;-80
2023/12/13 03:17:24;;;;;;;5.63;1.30;;;8.20;99.90;;;;;;4986700;28;20041;-81
2023/12/13 03:19:49;;;;;;;3.75;1.25;;;8.20;99.90;;;;;;5003705;28;20030;-80
2023/12/13 03:22:16;;;;;;;4.18;1.55;;;8.20;99.90;;;;;;4984072;28;20026;-80
2023/12/13 03:24:41;;;;;;;5.68;1.40;;;8.30;99.90;;;;;;4999869;28;20049;-80
2023/12/13 03:27:07;;;;;;;4.88;1.27;;;8.20;99.90;;;;;;5000891;28;20030;-80
2023/12/13 03:29:33;;;;;;;8.00;1.52;;;8.30;99.90;;;;;;5001954;28;20065;-81
2023/12/13 03:31:58;;;;;;;3.90;0.90;;;8.30;99.90;;;;;;4982898;28;20034;-80
2023/12/13 03:34:25;;;;;;;4.30;0.82;;;8.20;99.90;;;;;;4987917;28;20030;-80
2023/12/13 03:36:50;;;;;;;3.65;0.90;;;8.20;99.90;;;;;;4978873;28;20036;-80
2023/12/13 03:39:16;;;;;;;7.22;1.20;;;8.30;99.90;;;;;;4962402;28;20125;-80
2023/12/13 03:41:41;;;;;;;8.55;1.25;;;8.30;99.90;;;;;;4998001;28;20046;-80
2023/12/13 03:44:07;;;;;;;4.45;1.40;;;8.20;99.90;;;;;;4982428;28;20372;-80
2023/12/13 03:46:33;;;;;;;4.72;1.17;;;8.20;99.90;;;;;;4996118;28;20035;-81
2023/12/13 03:48:58;;;;;;;5.60;0.93;;;8.20;99.90;;;;;;4983271;28;20038;-80
2023/12/13 03:51:24;;;;;;;2.85;1.27;;;8.20;99.90;;;;;;4996367;28;20022;-80
2023/12/13 03:53:49;;;;;;;3.90;0.73;;;8.30;99.90;;;;;;4986570;28;20029;-80
2023/12/13 03:56:15;;;;;;;3.53;1.00;;;8.20;99.90;;;;;;5000824;28;20065;-79
2023/12/13 03:58:42;;;;;;;3.97;0.98;;;8.20;99.90;;;;;;4998130;28;20177;-79
2023/12/13 04:01:08;;;;;;;3.20;0.93;;;8.30;99.90;;;;;;4997232;28;20034;-80
2023/12/13 04:03:34;;;;;;;3.03;0.93;;;8.30;99.90;;;;;;4999779;28;20516;-80
2023/12/13 04:06:00;;;;;;;5.05;1.23;;;8.30;99.90;;;;;;4985680;28;20068;-80
2023/12/13 04:08:26;;;;;;;4.50;1.15;;;8.30;99.90;;;;;;5014687;28;20030;-80
2023/12/13 04:10:51;;;;;;;5.47;0.85;;;8.30;99.90;;;;;;4984512;28;20037;-80
2023/12/13 04:13:17;;;;;;;8.85;1.55;;;8.30;99.90;;;;;;4985858;28;20045;-80
2023/12/13 04:15:42;;;;;;;4.97;1.38;;;8.30;99.90;;;;;;4984233;28;20413;-80
2023/12/13 04:18:08;;;;;;;2.35;0.93;;;8.30;99.90;;;;;;4999321;28;20525;-79
2023/12/13 04:20:34;;;;;;;3.22;0.98;;;8.30;99.90;;;;;;4985967;28;20458;-79
2023/12/13 04:22:59;;;;;;;7.45;1.33;;;8.30;99.90;;;;;;5000347;28;20800;-79
2023/12/13 04:25:25;;;;;;;15.43;1.58;;;8.40;99.90;;;;;;5000662;28;20030;-79
2023/12/13 04:27:50;;;;;;;4.38;1.15;;;8.30;99.90;;;;;;4980687;28;20054;-79
2023/12/13 04:30:16;;;;;;;5.88;1.40;;;8.30;99.90;;;;;;5003222;28;20064;-78
2023/12/13 04:32:42;;;;;;;4.28;1.38;;;8.30;99.90;;;;;;5000880;28;20041;-79
2023/12/13 04:35:08;;;;;;;7.25;1.67;;;8.40;99.90;;;;;;4980152;28;20053;-78
2023/12/13 04:37:34;;;;;;;6.68;1.33;;;8.40;99.90;;;;;;4986281;28;20030;-79
2023/12/13 04:40:00;;;;;;;7.85;1.80;;;8.40;99.90;;;;;;4985373;28;20083;-80
2023/12/13 04:42:25;;;;;;;10.65;2.88;;;8.40;99.90;;;;;;4986693;28;20030;-79
2023/12/13 04:44:51;;;;;;;10.40;1.33;;;8.40;99.90;;;;;;4999261;28;20030;-80
2023/12/13 04:47:17;;;;;;;8.63;1.80;;;8.40;99.90;;;;;;4986570;28;20623;-79
2023/12/13 04:49:43;;;;;;;6.95;1.98;;;8.40;99.90;;;;;;4978813;28;20057;-79
2023/12/13 04:52:08;;;;;;;6.05;1.92;;;8.40;99.90;;;;;;4985817;28;20494;-79
2023/12/13 04:54:35;;;;;;;6.28;1.83;;;8.40;99.90;;;;;;4969379;28;20667;-81
2023/12/13 04:57:01;;;;;;;3.55;1.88;;;8.40;99.90;;;;;;4978074;28;20038;-80
2023/12/13 04:59:27;;;;;;;7.13;2.13;;;8.40;99.90;;;;;;4980806;28;20030;-80
2023/12/13 05:01:52;;;;;;;4.70;1.38;;;8.40;99.90;;;;;;5013509;28;20030;-79
2023/12/13 05:04:18;;;;;;;5.45;1.60;;;8.40;99.90;;;;;;4999065;28;20490;-79
2023/12/13 05:06:43;;;;;;;5.88;1.25;;;8.40;99.90;;;;;;4971815;28;20057;-79
2023/12/13 05:09:09;;;;;;;9.35;1.83;;;8.40;99.90;;;;;;4997153;28;20037;-79
2023/12/13 05:11:34;;;;;;;4.78;1.05;;;8.40;99.90;;;;;;4997120;28;20022;-78
2023/12/13 05:14:00;;;;;;;7.13;1.65;;;8.40;99.90;;;;;;4985851;28;20037;-79
2023/12/13 05:16:25;;;;;;;6.93;1.40;;;8.40;99.90;;;;;;4981448;28;20034;-79
2023/12/13 05:18:51;;;;;;;7.45;1.73;;;8.40;99.90;;;;;;4983330;28;20486;-80
2023/12/13 05:21:17;;;;;;;5.43;1.30;;;8.40;99.90;;;;;;4985863;28;20124;-80
2023/12/13 05:23:42;;;;;;;4.90;1.73;;;8.40;99.90;;;;;;4985791;28;20041;-80
2023/12/13 05:26:08;;;;;;;5.22;1.63;;;8.40;99.90;;;;;;4989455;28;20390;-79
2023/12/13 05:28:33;;;;;;;7.43;1.88;;;8.40;99.90;;;;;;5003392;28;20409;-80
2023/12/13 05:30:59;;;;;;;11.27;2.05;;;8.40;99.90;;;;;;5000508;28;20037;-80
2023/12/13 05:33:25;;;;;;;8.10;1.80;;;8.40;99.90;;;;;;4981405;28;20029;-80
2023/12/13 05:35:51;;;;;;;20.05;2.88;;;8.40;99.90;;;;;;4980341;28;20041;-80
2023/12/13 05:38:17;;;;;;;8.65;1.60;;;8.40;99.90;;;;;;4988052;28;20030;-80
2023/12/13 05:40:42;;;;;;;10.88;3.03;;;8.40;99.90;;;;;;4976868;28;20041;-81
2023/12/13 05:43:08;;;;;;;3.60;1.60;;;8.40;99.90;;;;;;4986355;28;20129;-80
2023/12/13 05:45:33;;;;;;;12.73;2.65;;;8.40;99.90;;;;;;5001808;28;20065;-80
2023/12/13 05:47:59;;;;;;;8.80;2.20;;;8.40;99.90;;;;;;5002041;28;20126;-80
2023/12/13 05:50:24;;;;;;;5.55;2.08;;;8.40;99.90;;;;;;4988276;28;20041;-80
2023/12/13 05:52:50;;;;;;;6.32;1.88;;;8.40;99.90;;;;;;4985288;28;20451;-80
2023/12/13 05:55:16;;;;;;;10.00;2.10;;;8.30;99.90;;;;;;5002578;28;20125;-81
2023/12/13 05:57:41;;;;;;;4.40;1.75;;;8.40;99.90;;;;;;4998894;28;20600;-81
2023/12/13 06:00:08;;;;;;;8.10;2.33;;;8.30;99.90;;;;;;4991331;28;20047;-81
2023/12/13 06:02:35;;;;;;;13.55;2.70;;;8.30;99.90;;;;;;4993167;28;20097;-80
2023/12/13 06:05:02;;;;;;;7.70;1.88;;;8.30;99.90;;;;;;4975825;28;20038;-80
2023/12/13 06:07:29;;;;;;;9.82;2.33;;;8.30;99.90;;;;;;4992260;28;20034;-80
2023/12/13 06:09:54;;;;;;;5.40;2.08;;;8.40;99.90;;;;;;4970371;28;20031;-80
2023/12/13 06:12:20;;;;;;;9.25;2.67;;;8.40;99.90;;;;;;4977233;28;20912;-80
2023/12/13 06:14:45;;;;;;;7.75;2.58;;;8.40;99.90;;;;;;4984708;28;20023;-80
2023/12/13 06:17:11;;;;;;;5.60;1.70;;;8.40;99.90;;;;;;4988823;28;20036;-80
2023/12/13 06:19:36;;;;;;;10.02;1.73;;;8.40;99.90;;;;;;5000193;28;20033;-81
2023/12/13 06:22:02;;;;;;;6.22;2.15;;;8.40;99.90;;;;;;4983448;28;20415;-81
2023/12/13 06:24:28;;;;;;;11.32;3.42;;;8.40;99.90;;;;;;4985301;28;20034;-81
2023/12/13 06:26:54;;;;;;;10.70;2.50;;;8.40;99.90;;;;;;4987708;28;20448;-80
2023/12/13 06:29:19;;;;;;;4.43;1.88;;;8.40;99.90;;;;;;4998503;28;20037;-80
2023/12/13 06:31:45;;;;;;;7.45;1.65;;;8.40;99.90;;;;;;4996784;28;20159;-80
2023/12/13 06:34:10;;;;;;;8.32;2.40;;;8.40;99.90;;;;;;4978466;28;20108;-80
2023/12/13 06:36:36;;;;;;;6.47;1.88;;;8.40;99.90;;;;;;5000292;28;20107;-80
2023/12/13 06:39:04;;;;;;;7.97;2.22;;;8.40;99.90;;;;;;5000031;28;20038;-80
2023/12/13 06:41:31;;;;;;;8.63;2.28;;;8.40;99.90;;;;;;4999601;28;20075;-80
2023/12/13 06:43:56;;;;;;;7.82;1.83;;;8.40;99.90;;;;;;4997506;28;20781;-80
2023/12/13 06:46:23;;;;;;;8.70;1.88;;;8.40;99.90;;;;;;4996385;28;20035;-80
2023/12/13 06:48:48;;;;;;;10.48;2.45;;;8.40;99.90;;;;;;4997962;28;20031;-80
2023/12/13 06:51:14;;;;;;;6.47;1.58;;;8.40;99.90;;;;;;4997686;28;20060;-80
2023/12/13 06:53:39;;;;;;;9.98;1.90;;;8.40;99.90;;;;;;4973644;28;20034;-80
2023/12/13 06:56:05;;;;;;;7.13;2.00;;;8.40;99.90;;;;;;4998764;28;20171;-79
2023/12/13 06:58:34;;;;;;;8.23;2.35;;;8.40;99.90;;;;;;4975589;28;20054;-81
2023/12/13 07:01:00;;;;;;;7.38;1.70;;;8.40;99.90;;;;;;5001718;28;20034;-80
2023/12/13 07:03:25;;;;;;;11.23;2.63;;;8.40;99.90;;;;;;4987771;28;20038;-80
2023/12/13 07:05:51;;;;;;;12.38;2.90;;;8.40;99.90;;;;;;4971281;28;20481;-80
2023/12/13 07:08:16;;;;;;;10.27;2.63;;;8.40;99.90;;;;;;4999808;28;20030;-81
2023/12/13 07:10:43;;;;;;;8.13;2.35;;;8.40;99.90;;;;;;4999928;28;20037;-80
2023/12/13 07:13:08;;;;;;;7.30;2.38;;;8.40;99.90;;;;;;4984023;28;20037;-80
2023/12/13 07:15:34;;;;;;;14.80;2.83;;;8.40;99.90;;;;;;4982373;28;20034;-80
2023/12/13 07:17:59;;;;;;;12.20;2.75;;;8.40;99.90;;;;;;4996806;28;20057;-80
2023/12/13 07:20:25;;;;;;;15.85;2.70;;;8.30;99.90;;;;;;4999055;28;20494;-81
2023/12/13 07:22:50;;;;;;;11.88;3.08;;;8.40;99.90;;;;;;4992973;28;20489;-81
2023/12/13 07:25:16;;;;;;;14.57;2.95;;;8.30;99.90;;;;;;4971481;28;20040;-80
2023/12/13 07:27:42;;;;;;;9.38;3.05;;;8.30;99.90;;;;;;4975727;28;20184;-79
2023/12/13 07:30:07;;;;;;;10.57;2.30;;;8.30;99.90;;;;;;4998476;28;20128;-80
2023/12/13 07:32:33;;;;;;;9.30;2.67;;;8.30;99.90;;;;;;4973527;28;20733;-79
2023/12/13 07:34:59;;;;;;;15.57;3.70;;;8.30;99.90;;;;;;4971148;28;20034;-80
2023/12/13 07:37:24;;;;;;;7.22;2.33;;;8.30;99.90;;;;;;4989940;28;20032;-80
2023/12/13 07:39:50;;;;;;;8.13;1.80;;;8.30;99.90;;;;;;4990332;28;20394;-80
2023/12/13 07:42:16;;;;;;;10.07;2.38;;;8.30;99.90;;;;;;4982765;28;20045;-79
2023/12/13 07:44:42;;;;;;;7.88;2.22;;;8.40;99.90;;;;;;4975649;28;20046;-80
2023/12/13 07:47:07;;;;;;;13.60;2.67;;;8.30;99.90;;;;;;4964827;28;20041;-80
2023/12/13 07:49:33;;;;;;;4.57;2.20;;;8.30;99.90;;;;;;4970035;28;20109;-80
2023/12/13 07:51:58;;;;;;;9.48;2.78;;;8.30;99.90;;;;;;4987667;28;20404;-80
2023/12/13 07:54:24;;;;;;;8.85;2.25;;;8.40;99.90;;;;;;4978580;28;20540;-80
2023/12/13 07:56:52;;;;;;;8.80;2.88;;;8.50;99.90;;;;;;4983560;28;20041;-80
2023/12/13 07:59:18;;;;;;;12.15;2.58;;;8.30;99.90;;;;;;4983339;28;20038;-80
2023/12/13 08:01:43;;;;;;;12.52;2.58;;;8.40;99.90;;;;;;4971437;28;20038;-81
2023/12/13 08:04:09;;;;;;;8.57;2.60;;;8.30;99.90;;;;;;4984922;28;20035;-80
2023/12/13 08:06:34;;;;;;;9.55;2.20;;;8.40;99.90;;;;;;4968571;28;20398;-80
2023/12/13 08:09:01;;;;;;;18.55;3.30;;;8.40;99.90;;;;;;4963824;28;20035;-80
2023/12/13 08:11:27;;;;;;;12.75;2.70;;;8.40;99.90;;;;;;4969322;28;20544;-79
2023/12/13 08:13:52;;;;;;;8.40;2.15;;;8.40;99.90;;;;;;4970366;28;20077;-80
2023/12/13 08:16:18;;;;;;;13.85;2.80;;;8.50;99.90;;;;;;4974145;28;20061;-80
2023/12/13 08:18:44;;;;;;;6.93;2.17;;;8.40;99.90;;;;;;4964731;28;20062;-79
2023/12/13 08:21:09;;;;;;;4.47;2.40;;;8.40;99.90;;;;;;4970216;28;20115;-79
2023/12/13 08:23:35;;;;;;;12.90;2.67;;;8.40;99.90;;;;;;4969212;28;20033;-79
2023/12/13 08:26:01;;;;;;;8.02;2.72;;;8.40;99.90;;;;;;4996715;28;20561;-79
2023/12/13 08:28:26;;;;;;;9.68;2.15;;;8.30;99.90;;;;;;4984133;28;20032;-79
2023/12/13 08:30:52;;;;;;;14.80;3.15;;;8.30;99.90;;;;;;4984703;28;20516;-80
2023/12/13 08:33:17;;;;;;;7.18;3.22;;;8.30;99.90;;;;;;4982090;28;20037;-80
2023/12/13 08:35:43;;;;;;;9.40;2.47;;;8.40;99.90;;;;;;4962566;28;20048;-80
2023/12/13 08:38:08;;;;;;;4.72;2.00;;;8.40;99.90;;;;;;4995117;28;20085;-80
2023/12/13 08:40:34;;;;;;;12.82;1.90;;;8.40;99.90;;;;;;4983263;28;20686;-79
2023/12/13 08:43:00;;;;;;;14.18;2.70;;;8.40;99.90;;;;;;4995693;28;20029;-79
2023/12/13 08:45:25;;;;;;;10.05;3.28;;;8.40;99.90;;;;;;4952688;28;20038;-80
2023/12/13 08:47:51;;;;;;;21.30;4.07;;;8.40;99.90;;;;;;4988710;28;20471;-80
2023/12/13 08:50:17;;;;;;;12.48;3.15;;;8.40;99.90;;;;;;4964924;28;20409;-79
2023/12/13 08:52:42;;;;;;;5.32;2.50;;;8.50;99.90;;;;;;4969550;28;20089;-80
2023/12/13 08:55:08;;;;;;;8.52;2.40;;;8.60;99.90;;;;;;4990596;28;20474;-80
2023/12/13 08:57:34;;;;;;;14.18;2.95;;;8.60;99.90;;;;;;4974986;28;20092;-80
2023/12/13 09:00:00;;;;;;;7.43;2.58;;;8.70;99.90;;;;;;4978527;28;20037;-79
2023/12/13 09:02:25;;;;;;;8.70;2.75;;;8.70;99.90;;;;;;4984203;28;20036;-79
2023/12/13 09:04:51;;;;;;;13.18;2.72;;;8.80;99.90;;;;;;4999177;28;20486;-79
2023/12/13 09:07:18;;;;;;;19.65;3.20;;;8.80;99.90;;;;;;5009905;28;20397;-79
2023/12/13 09:09:43;;;;;;;8.23;2.03;;;8.80;99.90;;;;;;4980234;28;20030;-79
2023/12/13 09:12:09;;;;;;;12.75;3.08;;;8.80;99.90;;;;;;4991910;28;20390;-80
2023/12/13 09:14:35;;;;;;;7.80;2.50;;;8.90;99.90;;;;;;4983794;28;20064;-79
2023/12/13 09:17:01;;;;;;;10.38;2.47;;;8.80;99.90;;;;;;4985996;28;20049;-80
2023/12/13 09:19:27;;;;;;;14.18;2.47;;;9.00;99.90;;;;;;4984899;28;20496;-80
2023/12/13 09:21:52;;;;;;;10.48;2.35;;;8.90;99.90;;;;;;4982562;28;20046;-79
2023/12/13 09:24:18;;;;;;;5.97;2.17;;;9.00;99.90;;;;;;4999748;28;20409;-80
2023/12/13 09:26:44;;;;;;;6.75;2.20;;;9.10;99.90;;;;;;4968555;28;20100;-80
2023/12/13 09:29:10;;;;;;;14.05;2.83;;;9.10;99.90;;;;;;4995173;28;20033;-80
2023/12/13 09:31:36;;;;;;;13.95;3.17;;;9.10;99.90;;;;;;4984659;28;20030;-79
2023/12/13 09:34:02;;;;;;;11.38;2.45;;;9.10;99.90;;;;;;4983135;28;20030;-79
2023/12/13 09:36:27;;;;;;;6.15;2.80;;;9.20;99.90;;;;;;5012630;28;20389;-80
2023/12/13 09:38:53;;;;;;;9.88;2.50;;;9.20;99.90;;;;;;4984608;28;20049;-79
2023/12/13 09:41:23;;;;;;;10.05;2.80;;;9.30;99.90;;;;;;4981581;28;20042;-80
2023/12/13 09:43:49;;;;;;;14.32;3.05;;;9.30;99.90;;;;;;4979197;28;20034;-80
2023/12/13 09:46:18;;;;;;;8.80;1.98;;;9.30;99.90;;;;;;4981228;28;20555;-79
2023/12/13 09:48:44;;;;;;;9.65;2.40;;;9.30;99.90;;;;;;4998144;28;20046;-79
2023/12/13 09:51:11;;;;;;;7.25;2.95;;;9.40;99.90;;;;;;4984980;28;20125;-80
2023/12/13 09:53:38;;;;;;;10.75;2.38;;;9.30;99.90;;;;;;4968323;28;20044;-80
2023/12/13 09:56:03;;;;;;;8.73;2.72;;;9.40;99.90;;;;;;4993903;28;20037;-80
2023/12/13 09:58:29;;;;;;;7.32;2.00;;;9.40;99.90;;;;;;4968288;28;20121;-80
2023/12/13 10:00:56;;;;;;;12.88;3.67;;;9.40;99.90;;;;;;4996686;28;20041;-80
2023/12/13 10:03:21;;;;;;;7.45;2.50;;;9.40;99.90;;;;;;4994549;28;20065;-80
2023/12/13 10:05:48;;;;;;;8.93;1.95;;;9.40;99.90;;;;;;4971833;28;20351;-80
2023/12/13 10:08:14;;;;;;;11.25;2.95;;;9.40;99.90;;;;;;4964307;28;20068;-79
2023/12/13 10:10:40;;;;;;;8.68;2.10;;;9.40;99.90;;;;;;5002522;28;20025;-79
2023/12/13 10:13:09;;;;;;;7.82;1.92;;;9.50;99.90;;;;;;4989239;28;20682;-80
2023/12/13 10:15:35;;;;;;;7.10;2.13;;;9.50;99.90;;;;;;5002288;28;20033;-80
2023/12/13 10:18:01;;;;;;;4.82;1.27;;;9.50;99.90;;;;;;4999612;28;20738;-79
2023/12/13 10:20:27;;;;;;;5.90;2.20;;;9.60;99.90;;;;;;4982267;28;20375;-80
2023/12/13 10:22:53;;;;;;;7.10;1.80;;;9.60;99.90;;;;;;5017690;28;20025;-80
2023/12/13 10:25:23;;;;;;;6.40;1.60;;;9.50;99.90;;;;;;4979431;28;20041;-79
2023/12/13 10:27:50;;;;;;;10.55;2.65;;;9.60;99.90;;;;;;5003644;28;20141;-80
2023/12/13 10:30:17;;;;;;;7.53;1.80;;;9.60;99.90;;;;;;4996573;28;20057;-80
2023/12/13 10:32:43;;;;;;;6.95;2.08;;;9.70;99.90;;;;;;5013360;28;20029;-80
2023/12/13 10:35:09;;;;;;;5.78;1.80;;;9.70;99.90;;;;;;4998630;28;20487;-80
2023/12/13 10:37:34;;;;;;;6.13;1.65;;;9.60;99.90;;;;;;4998151;28;20444;-80
2023/12/13 10:40:00;;;;;;;9.20;2.15;;;9.70;99.90;;;;;;5012647;28;20113;-80
2023/12/13 10:42:26;;;;;;;8.18;2.30;;;9.70;99.90;;;;;;4996988;28;20035;-80
2023/12/13 10:44:52;;;;;;;9.10;1.52;;;9.80;99.90;;;;;;4999308;28;20390;-80
2023/12/13 10:47:17;;;;;;;8.65;2.30;;;9.80;99.90;;;;;;4982127;28;20040;-80
2023/12/13 10:49:43;;;;;;;8.45;1.80;;;9.80;99.90;;;;;;4984338;28;20431;-80
2023/12/13 10:52:09;;;;;;;5.32;1.40;;;9.60;99.90;;;;;;4997469;28;20033;-79
2023/12/13 10:54:36;;;;;;;12.15;3.08;;;9.60;99.90;;;;;;4986063;28;20034;-80
2023/12/13 10:57:02;;;;;;;9.98;2.05;;;9.70;99.90;;;;;;4983341;28;20041;-80
2023/12/13 10:59:28;;;;;;;7.95;2.05;;;9.60;99.90;;;;;;4965731;28;20031;-79
2023/12/13 11:01:53;;;;;;;10.45;1.73;;;9.60;99.90;;;;;;4984294;28;20042;-80
2023/12/13 11:04:19;;;;;;;11.75;1.90;;;9.50;99.90;;;;;;4996578;28;20108;-80
2023/12/13 11:06:48;;;;;;;12.25;1.95;;;9.60;99.90;;;;;;4996489;28;20408;-80
2023/12/13 11:09:17;;;;;;;5.88;2.10;;;9.60;99.90;;;;;;5001539;28;20049;-79
2023/12/13 11:11:43;;;;;;;10.25;2.25;;;9.60;99.90;;;;;;4985059;28;20137;-79
2023/12/13 11:14:09;;;;;;;9.85;2.38;;;9.60;99.90;;;;;;4986031;28;20596;-79
2023/12/13 11:16:39;;;;;;;5.22;1.98;;;9.60;99.90;;;;;;4995489;28;20030;-79
2023/12/13 11:19:04;;;;;;;8.60;2.45;;;9.70;99.90;;;;;;4994866;28;20041;-79
2023/12/13 11:21:31;;;;;;;10.70;3.10;;;9.90;99.90;;;;;;4976046;28;20398;-80
2023/12/13 11:24:19;;;;;;;7.85;2.45;;;10.00;99.90;;;;;;4978049;28;20516;-80
2023/12/13 11:26:51;;;;;;;10.40;2.83;;;10.00;99.90;;;;;;4983548;28;20061;-80
2023/12/13 11:29:46;;;;;;;7.78;2.00;;;10.20;99.90;;;;;;4976163;28;20405;-80
2023/12/13 11:32:11;;;;;;;5.82;1.58;;;10.30;99.90;;;;;;4993836;28;20026;-80
2023/12/13 11:34:42;;;;;;;5.40;1.73;;;10.50;99.90;;;;;;4999066;28;20044;-79
2023/12/13 11:37:09;;;;;;;9.52;2.53;;;10.50;99.90;;;;;;5000355;28;20105;-80
2023/12/13 11:39:36;;;;;;;7.78;2.35;;;10.50;99.90;;;;;;4995392;28;20116;-79
2023/12/13 11:42:02;;;;;;;6.85;2.45;;;10.60;99.90;;;;;;4995626;28;20038;-80
2023/12/13 11:44:32;;;;;;;8.13;2.70;;;10.60;99.90;;;;;;4992851;28;20034;-80
2023/12/13 11:46:59;;;;;;;6.13;2.33;;;10.70;99.90;;;;;;5001919;28;20493;-80
2023/12/13 11:49:26;;;;;;;10.43;2.67;;;10.70;99.90;;;;;;5001669;28;20034;-80
2023/12/13 11:51:52;;;;;;;5.70;1.98;;;10.60;99.90;;;;;;4967192;28;20034;-81
2023/12/13 11:54:18;;;;;;;8.45;1.90;;;10.50;99.90;;;;;;5010131;28;20033;-80
2023/12/13 11:56:44;;;;;;;5.90;1.90;;;10.20;99.90;;;;;;4982413;28;20034;-80
2023/12/13 11:59:11;;;;;;;4.88;1.88;;;10.30;99.90;;;;;;4973078;28;20122;-81
2023/12/13 12:01:37;;;;;;;7.05;2.25;;;10.20;99.90;;;;;;4983410;28;20935;-81
2023/12/13 12:04:03;;;;;;;5.60;2.15;;;10.30;99.90;;;;;;4978075;28;20048;-81
2023/12/13 12:06:30;;;;;;;5.30;1.80;;;10.20;99.90;;;;;;4981726;28;20030;-80
2023/12/13 12:08:58;;;;;;;6.07;1.60;;;10.20;99.90;;;;;;4994310;28;20508;-80
2023/12/13 12:11:24;;;;;;;2.67;1.35;;;10.10;99.90;;;;;;4979031;28;20477;-80
2023/12/13 12:13:52;;;;;;;4.38;1.45;;;10.20;99.90;;;;;;4997682;28;20057;-81
2023/12/13 12:16:19;;;;;;;4.43;1.63;;;10.20;99.90;;;;;;4986854;28;20042;-80
2023/12/13 12:18:45;;;;;;;4.07;1.15;;;10.00;99.90;;;;;;4986032;28;20128;-79
2023/12/13 12:21:11;;;;;;;5.57;1.15;;;9.90;99.90;;;;;;4996075;28;20045;-79
2023/12/13 12:23:43;;;;;;;4.97;1.23;;;9.90;99.90;;;;;;4988772;28;20045;-78
2023/12/13 12:26:09;;;;;;;6.25;1.77;;;10.00;99.90;;;;;;4992575;28;20573;-80
2023/12/13 12:28:35;;;;;;;6.15;1.58;;;10.00;99.90;;;;;;4638233;28;9999730;-79
2023/12/13 12:31:01;;;;;;;4.60;2.05;;;9.90;99.90;;;;;;4953477;28;20030;-78
2023/12/13 12:33:27;;;;;;;10.48;2.13;;;9.90;99.90;;;;;;4967790;28;20039;-78
2023/12/13 12:35:52;;;;;;;5.30;1.90;;;9.70;99.90;;;;;;4992510;28;20112;-78
2023/12/13 12:38:18;;;;;;;4.32;1.70;;;9.70;99.90;;;;;;4988559;28;20126;-78
2023/12/13 12:40:44;;;;;;;6.13;1.67;;;9.70;99.90;;;;;;4967465;28;20135;-80
2023/12/13 12:43:10;;;;;;;2.38;1.20;;;9.70;99.90;;;;;;4994360;28;20663;-80
2023/12/13 12:45:36;;;;;;;5.30;1.17;;;9.70;99.90;;;;;;4970192;28;20027;-80
2023/12/13 12:48:02;;;;;;;3.20;1.08;;;9.60;99.90;;;;;;4996194;28;20019;-77